Latest Weather Observations for Gabo Island

IDN60801

Issued at 3:42 pm EST Saturday 2 July 2022 (issued every 10 minutes, with the page automatically refreshed every 10 minutes)

About weather observations | Map of weather stations | Latest weather observations for NSW | Other Formats
Station Details ID: 084016 Name: GABO ISLAND LIGHTHOUSE Lat: -37.57 Lon: 149.92 Height: 15.0 m
Data from the previous 72 hours. | See also: Recent months at Gabo Island
Date/Time
EST
Temp
°C
App
Temp
°C
Dew
Point
°C
Rel
Hum
%
Delta-T
°C
Wind Press
QNH
hPa
Press
MSL
hPa
Rain since
9am
mm
Dir  Spd
km/h
Gust
km/h
Spd
kts
Gust
kts
02/03:30pm 12.6 7.3 6.6 67 2.8 S 24 30 13 16 1027.9 1027.9 0.0
02/03:09pm - - - - - - - - - - - - -
02/03:00pm 13.1 8.9 7.3 68 2.8 SSW 19 24 10 13 1028.4 1028.4 0.0
02/02:30pm 13.0 8.8 7.5 69 2.7 SSW 19 24 10 13 1028.4 1028.4 0.0
02/02:00pm 13.1 8.2 7.1 67 2.9 SSW 22 24 12 13 1028.2 1028.2 0.0
02/01:30pm 13.1 8.0 7.8 70 2.6 SSW 24 28 13 15 1028.2 1028.2 0.0
02/01:00pm 12.6 6.7 9.2 80 1.7 SW 30 35 16 19 1028.2 1028.2 0.0
02/12:30pm 12.7 7.3 9.5 81 1.6 SW 28 33 15 18 1028.5 1028.5 0.0
02/12:00pm 12.4 6.9 9.2 81 1.6 SW 28 32 15 17 1028.9 1028.9 0.0
02/11:30am 12.4 7.5 10.1 86 1.2 SW 26 30 14 16 1029.2 1029.2 0.0
02/11:00am 12.2 8.2 10.3 88 1.0 WSW 22 28 12 15 1029.7 1029.7 0.0
02/10:30am 11.6 8.0 9.9 89 0.9 W 19 20 10 11 1029.9 1029.9 0.0
02/10:00am 11.1 8.2 9.5 90 0.8 W 15 20 8 11 1030.1 1030.1 0.0
02/09:30am 10.7 7.3 9.3 91 0.7 W 17 20 9 11 1030.1 1030.1 0.0
02/09:00am 10.7 8.1 9.5 92 0.6 WNW 13 15 7 8 1030.2 1030.2 0.8
02/08:30am 10.2 7.1 9.0 92 0.6 WNW 15 20 8 11 1030.1 1030.1 0.8
02/08:00am 10.1 7.0 9.0 93 0.5 W 15 19 8 10 1029.9 1029.9 0.8
02/07:30am 9.8 6.3 8.7 93 0.5 W 17 19 9 10 1029.9 1029.9 0.6
02/07:00am 9.6 5.7 8.7 94 0.4 W 19 22 10 12 1029.6 1029.6 0.6
02/06:30am 9.6 6.1 8.7 94 0.4 WNW 17 20 9 11 1029.5 1029.5 0.6
02/06:00am 9.7 6.2 8.9 95 0.4 WNW 17 20 9 11 1029.3 1029.3 0.6
02/05:30am 9.9 6.1 9.1 95 0.4 W 19 24 10 13 1029.1 1029.1 0.6
02/05:00am 9.6 6.5 8.8 95 0.4 WNW 15 19 8 10 1029.0 1029.0 0.6
02/04:30am 9.7 5.9 8.9 95 0.4 W 19 22 10 12 1028.8 1028.8 0.6
02/04:00am 9.6 6.1 8.8 95 0.4 WNW 17 20 9 11 1028.9 1028.9 0.6
02/03:30am 9.8 6.7 9.0 95 0.4 WNW 15 20 8 11 1028.9 1028.9 0.4
02/03:00am 9.8 6.3 8.9 94 0.4 WNW 17 22 9 12 1028.9 1028.9 0.4
02/02:30am 10.0 6.6 9.1 94 0.4 W 17 20 9 11 1029.0 1029.0 0.4
02/02:00am 9.9 6.0 8.8 93 0.5 WNW 19 24 10 13 1029.3 1029.3 0.4
02/01:30am 10.0 6.9 8.8 92 0.6 WNW 15 22 8 12 1029.3 1029.3 0.4
02/01:00am 10.4 6.9 8.8 90 0.8 WNW 17 24 9 13 1029.4 1029.4 0.4
02/12:30am 11.3 8.5 8.7 84 1.3 S 13 20 7 11 1029.5 1029.5 0.4
02/12:00am 11.9 7.6 9.5 85 1.2 S 22 26 12 14 1029.6 1029.6 0.4
 
Date/Time
EST
Temp
°C
App
Temp
°C
Dew
Point
°C
Rel
Hum
%
Delta-T
°C
Wind Press
QNH
hPa
Press
MSL
hPa
Rain since
9am
mm
Dir  Spd
km/h
Gust
km/h
Spd
kts
Gust
kts
01/11:30pm 11.8 8.0 9.7 87 1.1 SSE 20 26 11 14 1029.9 1029.9 0.4
01/11:00pm 11.7 6.7 9.6 87 1.1 S 26 32 14 17 1029.9 1029.9 0.4
01/10:30pm 11.8 8.2 9.7 87 1.1 S 19 24 10 13 1030.1 1030.1 0.4
01/10:00pm 11.5 7.5 10.4 93 0.6 SW 22 28 12 15 1030.1 1030.1 0.4
01/09:30pm 11.4 6.9 10.1 92 0.7 WSW 24 32 13 17 1030.2 1030.2 0.4
01/09:11pm 11.2 6.7 10.0 92 0.6 WSW 24 - 13 - - 1030.3 -
01/09:00pm 11.3 6.8 9.9 91 0.7 WSW 24 30 13 16 1030.4 1030.4 0.4
01/08:30pm 11.1 6.9 9.7 91 0.7 SW 22 26 12 14 1030.4 1030.4 0.4
01/08:00pm 11.5 6.9 9.6 88 1.0 SW 24 30 13 16 1030.2 1030.2 0.2
01/07:30pm 11.5 6.3 10.1 91 0.7 SSW 28 32 15 17 1030.0 1030.0 0.2
01/07:00pm 11.5 5.7 9.6 88 1.0 S 30 35 16 19 1029.8 1029.8 0.2
01/06:30pm 11.9 6.8 9.1 83 1.4 SSW 26 30 14 16 1029.4 1029.4 0.2
01/06:00pm 12.2 7.4 8.9 80 1.6 S 24 30 13 16 1028.9 1028.9 0.2
01/05:30pm 11.9 6.2 8.4 79 1.7 S 28 32 15 17 1028.8 1028.8 0.2
01/05:00pm 11.9 8.7 8.6 80 1.6 SSW 15 20 8 11 1028.7 1028.7 0.2
01/04:30pm 11.8 6.9 8.5 80 1.6 S 24 30 13 16 1028.5 1028.5 0.2
01/04:00pm 12.3 7.6 7.8 74 2.2 S 22 32 12 17 1028.3 1028.3 0.2
01/03:30pm 12.4 7.4 7.9 74 2.2 SSE 24 32 13 17 1028.4 1028.4 0.0
01/03:00pm 13.1 8.9 8.4 73 2.3 S 20 26 11 14 1028.5 1028.5 0.0
01/02:30pm 12.7 8.0 9.2 79 1.8 WSW 24 30 13 16 1028.2 1028.2 0.0
01/02:00pm 12.6 6.8 8.1 74 2.2 SSW 28 37 15 20 1028.3 1028.3 0.0
01/01:30pm 14.1 9.1 8.1 67 3.0 S 24 30 13 16 1028.5 1028.5 0.0
01/01:00pm 13.4 8.2 7.2 66 3.0 S 24 28 13 15 1028.7 1028.7 0.0
01/12:30pm 13.4 8.2 7.2 66 3.0 S 24 28 13 15 1028.8 1028.8 0.0
01/12:00pm 13.3 7.4 7.3 67 2.9 S 28 32 15 17 1028.9 1028.9 0.0
01/11:30am 13.0 7.0 7.2 68 2.8 S 28 32 15 17 1028.9 1028.9 0.0
01/11:00am 13.4 7.9 7.6 68 2.8 S 26 32 14 17 1029.1 1029.1 0.0
01/10:30am 13.0 7.9 7.7 70 2.6 S 24 30 13 16 1029.3 1029.3 0.0
01/10:00am 12.9 8.3 8.2 73 2.3 S 22 28 12 15 1029.2 1029.2 0.0
01/09:30am 12.6 6.1 8.3 75 2.1 S 32 35 17 19 1029.0 1029.0 0.0
01/09:00am 12.5 7.5 8.2 75 2.1 SSW 24 28 13 15 1029.1 1029.1 8.2
01/08:30am 11.6 8.6 9.2 85 1.2 WSW 15 17 8 9 1028.9 1028.9 8.2
01/08:00am 11.5 7.9 8.5 82 1.5 SW 17 20 9 11 1028.7 1028.7 8.2
01/07:30am 11.7 5.3 8.6 81 1.5 S 32 39 17 21 1028.5 1028.5 8.2
01/07:00am 12.5 8.3 8.2 75 2.1 S 20 24 11 13 1028.4 1028.4 8.2
01/06:30am 12.0 7.4 8.1 77 1.9 S 22 28 12 15 1028.1 1028.1 8.2
01/06:00am 12.6 8.7 9.4 81 1.6 S 20 26 11 14 1027.7 1027.7 8.2
01/05:30am 12.0 8.3 9.6 85 1.2 S 19 24 10 13 1027.3 1027.3 8.2
01/05:00am 11.3 7.2 10.2 93 0.6 SSW 22 26 12 14 1026.7 1026.7 8.2
01/04:30am 11.1 5.5 10.2 94 0.5 S 30 35 16 19 1026.7 1026.7 7.8
01/04:00am 11.4 5.6 10.8 96 0.3 S 32 39 17 21 1027.1 1027.1 5.4
01/03:41am 11.3 6.3 10.8 97 0.3 SW 28 41 15 22 1027.1 1027.1 3.8
01/03:30am 10.2 6.5 9.6 96 0.3 W 19 26 10 14 1027.1 1027.1 2.8
01/03:00am 9.8 6.4 9.2 96 0.3 W 17 20 9 11 1027.2 1027.2 1.8
01/02:30am 9.8 6.4 9.0 95 0.4 WNW 17 24 9 13 1027.1 1027.1 1.0
01/02:00am 10.4 5.4 9.6 95 0.4 W 26 32 14 17 1027.0 1027.0 0.8
01/01:30am 10.7 6.1 9.5 92 0.6 WSW 24 30 13 16 1027.1 1027.1 0.0
01/01:00am 11.3 6.0 9.9 91 0.7 WSW 28 35 15 19 1026.8 1026.8 0.0
01/12:30am 11.4 5.2 9.5 88 1.0 WSW 32 37 17 20 1026.8 1026.8 0.0
01/12:00am 11.0 5.9 7.7 80 1.6 WSW 24 30 13 16 1026.6 1026.6 0.0
 
Date/Time
EST
Temp
°C
App
Temp
°C
Dew
Point
°C
Rel
Hum
%
Delta-T
°C
Wind Press
QNH
hPa
Press
MSL
hPa
Rain since
9am
mm
Dir  Spd
km/h
Gust
km/h
Spd
kts
Gust
kts
30/11:30pm 10.0 5.5 6.2 77 1.8 W 19 22 10 12 1026.7 1026.7 0.0
30/11:00pm 10.3 6.3 6.5 77 1.8 W 17 24 9 13 1026.8 1026.8 0.0
30/10:30pm 10.0 6.3 6.3 78 1.7 WNW 15 17 8 9 1026.5 1026.5 0.0
30/10:00pm 10.0 6.4 6.7 80 1.5 WNW 15 20 8 11 1026.4 1026.4 0.0
30/09:30pm 9.9 5.9 6.6 80 1.5 WNW 17 20 9 11 1026.3 1026.3 0.0
30/09:00pm 10.0 5.6 6.5 79 1.6 WNW 19 20 10 11 1026.4 1026.4 0.0
30/08:30pm 10.6 6.3 6.9 78 1.8 W 19 28 10 15 1026.3 1026.3 0.0
30/08:00pm 11.1 5.6 7.4 78 1.8 WSW 26 32 14 17 1025.8 1025.8 0.0
30/07:30pm 11.0 6.7 7.9 81 1.5 W 20 28 11 15 1025.4 1025.4 0.0
30/07:00pm 11.4 6.5 8.3 81 1.5 W 24 33 13 18 1025.3 1025.3 0.0
30/06:30pm 11.6 5.5 8.3 80 1.6 WSW 30 37 16 20 1025.0 1025.0 0.0
30/06:00pm 11.6 5.8 8.1 79 1.7 WSW 28 35 15 19 1025.1 1025.1 0.0
30/05:30pm 11.8 6.1 8.3 79 1.7 WSW 28 35 15 19 1024.7 1024.7 0.0
30/05:00pm 11.9 6.2 8.4 79 1.7 WSW 28 35 15 19 1024.5 1024.5 0.0
30/04:30pm 12.2 5.7 8.3 77 1.9 WSW 32 39 17 21 1024.3 1024.3 0.0
30/04:00pm 12.6 6.5 8.3 75 2.1 WSW 30 35 16 19 1024.1 1024.1 0.0
30/03:30pm 12.9 6.4 8.8 76 2.1 SW 33 39 18 21 1024.0 1024.0 0.0
30/03:00pm 13.0 7.3 8.3 73 2.3 SW 28 35 15 19 1023.8 1023.8 0.0
30/02:30pm 13.3 6.8 8.0 70 2.6 WSW 32 39 17 21 1023.9 1023.9 0.0
30/02:00pm 13.2 6.7 8.1 71 2.5 WSW 32 37 17 20 1023.7 1023.7 0.0
30/01:30pm 13.5 7.7 8.1 70 2.7 SW 28 35 15 19 1023.6 1023.6 0.0
30/01:00pm 13.3 7.2 8.2 71 2.5 WSW 30 35 16 19 1024.0 1024.0 0.0
30/12:30pm 13.7 8.1 8.7 72 2.5 WSW 28 33 15 18 1024.0 1024.0 0.0
30/12:00pm 14.3 9.0 8.3 67 3.0 WSW 26 32 14 17 1024.1 1024.1 0.0
30/11:30am 12.9 7.4 7.6 70 2.6 WSW 26 32 14 17 1024.5 1024.5 0.0
30/11:00am 12.7 6.8 7.4 70 2.6 WSW 28 32 15 17 1024.5 1024.5 0.0
30/10:30am 12.7 6.8 7.4 70 2.6 WSW 28 33 15 18 1024.6 1024.6 0.0
30/10:00am 12.4 6.7 6.7 68 2.7 W 26 32 14 17 1024.4 1024.4 0.0
30/09:30am 12.4 7.5 6.7 68 2.7 W 22 28 12 15 1024.0 1024.0 0.0
30/09:00am 11.5 5.6 6.0 69 2.6 W 26 32 14 17 1024.0 1024.0 0.0
30/08:30am 11.1 6.5 6.3 72 2.2 WNW 20 24 11 13 1023.8 1023.8 0.0
30/08:00am 10.7 6.1 5.7 71 2.3 WNW 19 22 10 12 1023.4 1023.4 0.0
30/07:30am 10.8 6.7 6.2 73 2.1 W 17 22 9 12 1023.0 1023.0 0.0
30/07:00am 10.8 6.6 5.8 71 2.3 WNW 17 22 9 12 1022.6 1022.6 0.0
30/06:30am 10.6 5.4 5.6 71 2.3 WNW 22 28 12 15 1022.2 1022.2 0.0
30/06:00am 10.3 5.7 6.5 77 1.8 W 20 26 11 14 1021.6 1021.6 0.0
30/05:30am 10.3 5.7 6.3 76 1.9 W 20 24 11 13 1021.4 1021.4 0.0
30/05:00am 10.1 5.9 5.9 75 1.9 W 17 20 9 11 1021.2 1021.2 0.0
30/04:30am 9.9 5.7 5.9 76 1.8 WNW 17 20 9 11 1020.9 1020.9 0.0
30/04:00am 10.0 6.3 6.2 77 1.8 WNW 15 20 8 11 1021.0 1021.0 0.0
30/03:30am 10.3 6.3 6.8 79 1.6 WNW 17 24 9 13 1021.0 1021.0 0.0
30/03:00am 10.1 5.7 6.6 79 1.6 WNW 19 24 10 13 1021.0 1021.0 0.0
30/02:30am 10.5 6.2 6.8 78 1.7 W 19 24 10 13 1021.0 1021.0 0.0
30/02:00am 9.7 5.6 6.2 79 1.6 WNW 17 20 9 11 1021.0 1021.0 0.0
30/01:30am 9.7 6.0 6.4 80 1.5 WNW 15 19 8 10 1021.0 1021.0 0.0
30/01:00am 9.8 5.3 6.3 79 1.6 W 19 20 10 11 1021.0 1021.0 0.0
30/12:30am 9.7 5.2 6.2 79 1.6 W 19 22 10 12 1021.0 1021.0 0.0
30/12:00am 9.7 5.2 6.1 78 1.7 WNW 19 20 10 11 1021.0 1021.0 0.0
 
Date/Time
EST
Temp
°C
App
Temp
°C
Dew
Point
°C
Rel
Hum
%
Delta-T
°C
Wind Press
QNH
hPa
Press
MSL
hPa
Rain since
9am
mm
Dir  Spd
km/h
Gust
km/h
Spd
kts
Gust
kts
29/11:30pm 9.6 5.5 6.0 78 1.7 W 17 20 9 11 1021.1 1021.1 0.0
29/11:00pm 9.7 6.3 5.9 77 1.7 WNW 13 19 7 10 1021.1 1021.1 0.0
29/10:30pm 9.5 5.7 5.9 78 1.7 WNW 15 17 8 9 1020.7 1020.7 0.0
29/10:00pm 9.9 6.1 5.9 76 1.8 WNW 15 19 8 10 1021.2 1021.2 0.0
29/09:30pm 10.0 6.3 6.2 77 1.8 WNW 15 17 8 9 1020.7 1020.7 0.0
29/09:00pm 9.5 5.4 6.2 80 1.5 WNW 17 19 9 10 1020.9 1020.9 0.0
29/08:30pm 9.5 5.8 6.4 81 1.4 WNW 15 17 8 9 1021.0 1021.0 0.0
29/08:00pm 9.0 5.2 5.7 80 1.5 WNW 15 17 8 9 1021.0 1021.0 0.0
29/07:30pm 9.1 5.7 5.8 80 1.5 W 13 15 7 8 1021.0 1021.0 0.0
29/07:00pm 8.6 5.3 4.6 76 1.8 WSW 11 13 6 7 1020.9 1020.9 0.0
29/06:30pm 9.8 7.0 5.2 73 2.1 W 9 9 5 5 1020.5 1020.5 0.0
29/06:00pm 10.4 8.0 5.2 70 2.4 WNW 7 9 4 5 1020.9 1020.9 0.0
29/05:30pm 10.4 7.9 4.5 67 2.6 WNW 7 7 4 4 1020.7 1020.7 0.0
29/05:00pm 10.5 7.9 4.4 66 2.7 SW 7 9 4 5 1020.7 1020.7 0.0
29/04:30pm 11.6 8.6 4.3 61 3.3 SSW 9 9 5 5 1020.4 1020.4 0.0
29/04:00pm 11.7 8.8 4.9 63 3.1 W 9 11 5 6 1020.8 1020.8 0.0

Other formats

Comma delimited format used in spreadsheet applications
http://www.bom.gov.au/fwo/IDN60801/IDN60801.94933.axf

JavaScript Object Notation format (JSON) in row-major order
http://www.bom.gov.au/fwo/IDN60801/IDN60801.94933.json

Data quality

Most of these data are generated automatically and are frequently updated. Quality checks on data are not normally performed. It is possible for incorrect values to appear. Refer to information at About Latest Weather Observations and please check the disclaimer before using these data.